Wagon Wheel Gap, Colorado
Current Conditions -  °F | °C
As of 12:50 AM on Friday 19 Dec 2014 (Local Time) from KRCV Reporting Station
Clear Clear  
Wind Chill:   Ceiling: Unl
Heat Index: 14°   Visibility: 10mi
Dew Point:   Wind: 8mph
Humidity: 82%   Direction: 270°W
Pressure: 30.13"   Gusts: NA
Location:  37.6617°N, 106.617°W
Report Text: KRCV 190750Z AUTO 27007KT 10SM CLR M10/M13 A3013 RMK AO2 T11021127
Loading
Personal Weather Stations






























Interactive Weather Map New forecast layout! Learn more

10-Day Weather Forecast

Advertisements
Track Severe Weather on mobile